Time;durP1;ratioP1;P1;durP2;ratioP2;P2;SDS_P1;SDS_P2;PMS_P1;PMS_P2;Temp;Humidity;BMP_temperature;BMP_pressure;BME280_temperature;BME280_humidity;BME280_pressure;Samples;Min_cycle;Max_cycle;Signal;HPM_P1;HPM_P2
2023/01/04 00:01:45;;;;;;;60.28;29.70;;;6.20;99.90;;;;;;4976904;28;20019;-70
2023/01/04 00:04:10;;;;;;;62.35;33.33;;;6.20;99.90;;;;;;4976911;28;20026;-70
2023/01/04 00:06:36;;;;;;;61.60;29.85;;;6.20;99.90;;;;;;4977072;28;20054;-70
2023/01/04 00:09:01;;;;;;;62.45;31.05;;;6.20;99.90;;;;;;4976618;28;20039;-70
2023/01/04 00:11:27;;;;;;;64.38;31.95;;;6.20;99.90;;;;;;4977016;28;20027;-70
2023/01/04 00:13:57;;;;;;;66.75;31.85;;;6.20;99.90;;;;;;4976799;28;20483;-70
2023/01/04 00:16:24;;;;;;;66.10;30.80;;;6.20;99.90;;;;;;4976934;28;20023;-70
2023/01/04 00:18:50;;;;;;;62.60;29.13;;;6.20;99.90;;;;;;4977089;28;20031;-70
2023/01/04 00:21:22;;;;;;;69.80;30.67;;;6.20;99.90;;;;;;4976797;28;20501;-70
2023/01/04 00:23:51;;;;;;;70.18;31.67;;;6.20;99.90;;;;;;4976905;28;20033;-70
2023/01/04 00:26:28;;;;;;;56.58;30.15;;;6.20;99.90;;;;;;4976446;28;20387;-70
2023/01/04 00:28:55;;;;;;;68.07;29.90;;;6.20;99.90;;;;;;4976672;28;20471;-70
2023/01/04 00:31:22;;;;;;;67.20;29.35;;;6.20;99.90;;;;;;4976686;28;20041;-69
2023/01/04 00:33:48;;;;;;;63.08;28.52;;;6.20;99.90;;;;;;4976171;28;20407;-70
2023/01/04 00:36:14;;;;;;;59.17;29.63;;;6.20;99.90;;;;;;4976597;28;20019;-70
2023/01/04 00:38:40;;;;;;;66.60;27.83;;;6.20;99.90;;;;;;4977004;28;20376;-69
2023/01/04 00:41:07;;;;;;;68.13;28.83;;;6.20;99.90;;;;;;4976707;28;20029;-70
2023/01/04 00:43:33;;;;;;;53.40;27.42;;;6.20;99.90;;;;;;4976799;28;20026;-69
2023/01/04 00:46:00;;;;;;;59.10;27.00;;;6.20;99.90;;;;;;4976836;28;20538;-69
2023/01/04 00:48:27;;;;;;;76.45;29.67;;;6.20;99.90;;;;;;4976631;28;20030;-69
2023/01/04 00:50:53;;;;;;;66.47;27.48;;;6.20;99.90;;;;;;4976420;28;20023;-69
2023/01/04 00:53:18;;;;;;;59.00;26.77;;;6.20;99.90;;;;;;4976490;28;20023;-70
2023/01/04 00:55:45;;;;;;;49.08;23.95;;;6.20;99.90;;;;;;4974885;28;20023;-70
2023/01/04 00:58:11;;;;;;;59.65;26.42;;;6.20;99.90;;;;;;4976296;28;20058;-70
2023/01/04 01:00:38;;;;;;;49.58;26.48;;;6.20;99.90;;;;;;4976400;28;20046;-70
2023/01/04 01:03:04;;;;;;;48.92;25.45;;;6.10;99.90;;;;;;4976242;28;20475;-69
2023/01/04 01:05:33;;;;;;;47.83;23.45;;;6.10;99.90;;;;;;4976553;28;20118;-70
2023/01/04 01:08:23;;;;;;;50.28;23.23;;;6.10;99.90;;;;;;4976000;28;20070;-69
2023/01/04 01:10:36;;;;;;;47.40;23.98;;;6.10;99.90;;;;;;4983300;23;20047;-70
2023/01/04 01:13:01;;;;;;;52.13;22.48;;;6.20;99.90;;;;;;4976128;28;20174;-70
2023/01/04 01:15:27;;;;;;;51.25;24.48;;;6.10;99.90;;;;;;4974626;28;20031;-69
2023/01/04 01:17:52;;;;;;;49.80;22.58;;;6.10;99.90;;;;;;4975994;28;20495;-69
2023/01/04 01:20:17;;;;;;;48.40;21.90;;;6.10;99.90;;;;;;4975546;28;20034;-70
2023/01/04 01:22:43;;;;;;;44.15;21.98;;;6.10;99.90;;;;;;4997584;23;20050;-68
2023/01/04 01:25:08;;;;;;;48.53;22.88;;;6.10;99.90;;;;;;4975612;28;20085;-67
2023/01/04 01:27:34;;;;;;;43.15;21.23;;;6.10;99.90;;;;;;4975363;28;20471;-67
2023/01/04 01:29:59;;;;;;;55.33;21.27;;;6.10;99.90;;;;;;4975368;28;20105;-67
2023/01/04 01:32:25;;;;;;;43.08;20.80;;;6.10;99.90;;;;;;4975535;28;20030;-67
2023/01/04 01:34:50;;;;;;;39.58;20.17;;;6.10;99.90;;;;;;4975113;28;20479;-67
2023/01/04 01:37:16;;;;;;;45.40;21.05;;;6.10;99.90;;;;;;4975222;28;20023;-67
2023/01/04 01:39:41;;;;;;;45.75;21.85;;;6.10;99.90;;;;;;4975348;28;20019;-67
2023/01/04 01:42:22;;;;;;;48.03;20.00;;;6.10;99.90;;;;;;4975385;28;20475;-67
2023/01/04 01:45:02;;;;;;;46.30;19.77;;;6.10;99.90;;;;;;4975250;28;20050;-67
2023/01/04 01:47:43;;;;;;;36.25;20.23;;;6.10;99.90;;;;;;4975365;28;20031;-67
2023/01/04 01:50:22;;;;;;;37.65;18.70;;;6.10;99.90;;;;;;4975340;28;20038;-67
2023/01/04 01:52:49;;;;;;;44.15;20.25;;;6.10;99.90;;;;;;4974840;28;20026;-67
2023/01/04 01:55:16;;;;;;;44.83;18.70;;;6.10;99.90;;;;;;4974855;28;20058;-67
2023/01/04 01:57:43;;;;;;;41.80;19.90;;;6.10;99.90;;;;;;4974545;28;20514;-67
2023/01/04 02:00:12;;;;;;;39.53;19.98;;;6.10;99.90;;;;;;4974895;28;20054;-67
2023/01/04 02:03:01;;;;;;;40.33;18.38;;;6.10;99.90;;;;;;4974425;28;20027;-67
2023/01/04 02:05:28;;;;;;;38.95;18.67;;;6.10;99.90;;;;;;4974555;28;20038;-67
2023/01/04 02:07:54;;;;;;;52.38;17.92;;;6.10;99.90;;;;;;4974634;28;20050;-67
2023/01/04 02:10:20;;;;;;;41.88;17.02;;;6.10;99.90;;;;;;4974734;28;20054;-67
2023/01/04 02:12:46;;;;;;;43.58;17.35;;;6.10;99.90;;;;;;4975165;28;20078;-67
2023/01/04 02:15:12;;;;;;;38.03;16.10;;;6.10;99.90;;;;;;4974606;28;20027;-67
2023/01/04 02:17:57;;;;;;;35.88;15.90;;;6.10;99.90;;;;;;4974553;28;20395;-67
2023/01/04 02:20:39;;;;;;;42.58;17.92;;;6.20;99.90;;;;;;4974626;28;20117;-67
2023/01/04 02:23:28;;;;;;;39.15;16.60;;;6.20;99.90;;;;;;4974367;28;20051;-67
2023/01/04 02:26:34;;;;;;;40.28;15.20;;;6.20;99.90;;;;;;4974786;28;20027;-67
2023/01/04 02:29:16;;;;;;;43.20;15.57;;;6.20;99.90;;;;;;4974756;28;20031;-67
2023/01/04 02:31:50;;;;;;;43.72;15.40;;;6.20;99.90;;;;;;4975000;28;20457;-67
2023/01/04 02:34:42;;;;;;;43.47;14.57;;;6.20;99.90;;;;;;4974722;28;20083;-67
2023/01/04 02:37:34;;;;;;;29.08;14.63;;;6.20;99.90;;;;;;4974449;28;20026;-67
2023/01/04 02:40:15;;;;;;;27.70;14.43;;;6.10;99.90;;;;;;4974336;28;20023;-67
2023/01/04 02:46:24;;;;;;;34.22;13.77;;;6.20;99.90;;;;;;4974331;28;20078;-67
2023/01/04 02:51:36;;;;;;;30.70;11.02;;;6.20;99.90;;;;;;4974630;28;20038;-67
2023/01/04 02:54:09;;;;;;;29.35;11.18;;;6.30;99.90;;;;;;4973970;28;20486;-67
2023/01/04 02:57:00;;;;;;;30.42;12.25;;;6.30;99.90;;;;;;4974080;28;20114;-67
2023/01/04 02:59:32;;;;;;;28.58;10.80;;;6.30;99.90;;;;;;4974224;28;20506;-67
2023/01/04 03:08:09;;;;;;;31.27;10.77;;;6.30;99.90;;;;;;4974687;28;20030;-67
2023/01/04 03:10:35;;;;;;;22.17;10.55;;;6.30;99.90;;;;;;4974353;28;20113;-67
2023/01/04 03:13:26;;;;;;;28.67;10.00;;;6.40;99.90;;;;;;4974117;28;20061;-67
2023/01/04 03:15:54;;;;;;;21.58;9.77;;;6.40;99.90;;;;;;4974038;28;20027;-67
2023/01/04 03:18:33;;;;;;;26.63;12.32;;;6.40;99.90;;;;;;4974037;28;20394;-67
2023/01/04 03:21:02;;;;;;;28.65;11.52;;;6.40;99.90;;;;;;4974235;28;20022;-67
2023/01/04 03:49:48;;;;;;;32.30;10.55;;;6.50;99.90;;;;;;4977225;28;20038;-68
2023/01/04 03:52:15;;;;;;;29.10;10.00;;;6.50;99.90;;;;;;4977184;28;20019;-67
2023/01/04 03:54:46;;;;;;;28.83;10.98;;;6.50;99.90;;;;;;4977150;28;20053;-67
2023/01/04 03:57:14;;;;;;;24.40;10.27;;;6.40;99.90;;;;;;4977020;28;20117;-67
2023/01/04 04:00:06;;;;;;;26.75;11.57;;;6.50;99.90;;;;;;4976905;28;20022;-68
2023/01/04 04:02:34;;;;;;;25.35;10.40;;;6.50;99.90;;;;;;4973153;28;20031;-68
2023/01/04 04:10:27;;;;;;;;;;;6.50;99.90;;;;;;4977162;28;20037;-68
2023/01/04 04:12:53;;;;;;;25.98;11.52;;;6.50;99.90;;;;;;4976719;28;19914;-68
2023/01/04 04:15:18;;;;;;;22.40;11.50;;;6.50;99.90;;;;;;4976711;28;20113;-67
2023/01/04 04:17:44;;;;;;;24.40;12.55;;;6.50;99.90;;;;;;4976664;28;20109;-68
2023/01/04 04:20:11;;;;;;;27.10;11.25;;;6.50;99.90;;;;;;4976723;28;20398;-67
2023/01/04 04:22:37;;;;;;;21.25;11.68;;;6.50;99.90;;;;;;4976629;28;20419;-68
2023/01/04 04:25:03;;;;;;;23.00;11.02;;;6.50;99.90;;;;;;4976888;28;20038;-67
2023/01/04 04:27:28;;;;;;;22.10;11.65;;;6.50;99.90;;;;;;4976525;28;20483;-68
2023/01/04 04:29:54;;;;;;;18.55;10.70;;;6.50;99.90;;;;;;4976811;28;20422;-67
2023/01/04 04:32:19;;;;;;;30.23;12.43;;;6.50;99.90;;;;;;4976325;28;20026;-68
2023/01/04 04:34:45;;;;;;;22.05;11.30;;;6.50;99.90;;;;;;4976374;28;20034;-68
2023/01/04 04:37:10;;;;;;;24.38;12.00;;;6.50;99.90;;;;;;4976924;28;20038;-67
2023/01/04 04:39:36;;;;;;;23.05;12.32;;;6.50;99.90;;;;;;4976339;28;20027;-67
2023/01/04 04:42:01;;;;;;;18.60;11.05;;;6.60;99.90;;;;;;4976723;28;20029;-67
2023/01/04 04:44:27;;;;;;;22.05;12.02;;;6.60;99.90;;;;;;4976082;28;20438;-68
2023/01/04 04:46:52;;;;;;;19.63;10.90;;;6.60;99.90;;;;;;4976264;28;20042;-67
2023/01/04 04:49:18;;;;;;;20.17;10.75;;;6.60;99.90;;;;;;4976158;28;20037;-68
2023/01/04 04:51:44;;;;;;;15.63;10.10;;;6.70;99.90;;;;;;4976065;28;20470;-68
2023/01/04 04:54:16;;;;;;;19.63;9.75;;;6.70;99.90;;;;;;4976140;28;20031;-67
2023/01/04 04:56:41;;;;;;;21.77;9.88;;;6.70;99.90;;;;;;4975219;28;20029;-68
2023/01/04 04:59:07;;;;;;;23.67;10.88;;;6.70;99.90;;;;;;4974760;28;20027;-67
2023/01/04 05:01:33;;;;;;;21.30;10.15;;;6.80;99.90;;;;;;4974571;28;20414;-68
2023/01/04 05:03:58;;;;;;;21.33;9.98;;;6.80;99.90;;;;;;4976096;28;20035;-67
2023/01/04 05:06:24;;;;;;;17.30;10.82;;;6.80;99.90;;;;;;4975496;28;20077;-68
2023/01/04 05:08:50;;;;;;;23.85;9.52;;;6.80;99.90;;;;;;4975785;28;20486;-67
2023/01/04 05:11:15;;;;;;;21.77;9.73;;;6.90;99.90;;;;;;4975803;28;20170;-68
2023/01/04 05:13:41;;;;;;;13.80;9.50;;;6.90;99.90;;;;;;4975563;28;20031;-68
2023/01/04 05:16:08;;;;;;;11.80;8.68;;;6.90;99.90;;;;;;4975674;28;20129;-67
2023/01/04 05:18:34;;;;;;;12.18;9.25;;;6.90;99.90;;;;;;4975459;28;20390;-68
2023/01/04 05:20:59;;;;;;;16.95;8.60;;;6.90;99.90;;;;;;4975519;28;20023;-67
2023/01/04 05:23:25;;;;;;;15.73;8.95;;;7.00;99.90;;;;;;4975604;28;20049;-68
2023/01/04 05:25:59;;;;;;;17.58;9.75;;;7.00;99.90;;;;;;4975748;28;20030;-67
2023/01/04 05:28:25;;;;;;;18.13;8.25;;;7.00;99.90;;;;;;4975382;28;20031;-67
2023/01/04 05:30:52;;;;;;;14.95;9.13;;;7.00;99.90;;;;;;4975003;28;20030;-68
2023/01/04 05:33:24;;;;;;;17.17;8.90;;;7.00;99.90;;;;;;4975505;28;20034;-67
2023/01/04 05:35:50;;;;;;;14.13;7.72;;;7.00;99.90;;;;;;4975461;28;20059;-67
2023/01/04 05:38:17;;;;;;;15.25;7.28;;;7.00;99.90;;;;;;4975123;28;20395;-67
2023/01/04 05:40:42;;;;;;;15.15;7.35;;;7.00;99.90;;;;;;4975315;28;20479;-68
2023/01/04 05:43:08;;;;;;;16.63;7.53;;;7.10;99.90;;;;;;4975610;28;20035;-67
2023/01/04 05:45:34;;;;;;;13.35;7.32;;;7.10;99.90;;;;;;4975124;28;20029;-68
2023/01/04 05:48:00;;;;;;;11.20;7.07;;;7.10;99.90;;;;;;4975309;28;20035;-67
2023/01/04 05:50:25;;;;;;;13.57;8.30;;;7.20;99.90;;;;;;4975577;28;20105;-67
2023/01/04 05:52:51;;;;;;;14.52;7.93;;;7.20;99.90;;;;;;4974861;28;20439;-67
2023/01/04 05:55:18;;;;;;;9.00;6.75;;;7.20;99.90;;;;;;4974847;28;20110;-67
2023/01/04 05:57:43;;;;;;;14.45;7.97;;;7.30;99.90;;;;;;4974647;28;20038;-68
2023/01/04 06:00:10;;;;;;;12.90;7.32;;;7.30;99.90;;;;;;4975124;28;20031;-67
2023/01/04 06:02:36;;;;;;;16.58;6.45;;;7.40;99.90;;;;;;4974710;28;20058;-68
2023/01/04 06:05:01;;;;;;;9.65;5.97;;;7.40;99.90;;;;;;4975320;28;20061;-67
2023/01/04 06:07:28;;;;;;;16.58;6.95;;;7.40;99.90;;;;;;4974420;28;20031;-68
2023/01/04 06:09:54;;;;;;;11.10;5.22;;;7.50;99.90;;;;;;4974981;28;20147;-67
2023/01/04 06:12:19;;;;;;;10.63;4.68;;;7.50;99.90;;;;;;4974764;28;20403;-68
2023/01/04 06:14:45;;;;;;;7.28;3.67;;;7.50;99.90;;;;;;4974644;28;20046;-68
2023/01/04 06:17:11;;;;;;;10.93;4.65;;;7.50;99.90;;;;;;4974335;28;20058;-68
2023/01/04 06:19:36;;;;;;;6.65;4.32;;;7.60;99.90;;;;;;4974383;28;20035;-68
2023/01/04 06:22:02;;;;;;;10.13;3.55;;;7.60;99.90;;;;;;4974111;28;20082;-68
2023/01/04 06:24:28;;;;;;;6.13;3.97;;;7.60;99.90;;;;;;4974789;28;20038;-68
2023/01/04 06:26:53;;;;;;;9.70;3.70;;;7.60;99.90;;;;;;4974334;28;20027;-68
2023/01/04 06:29:19;;;;;;;9.35;3.72;;;7.60;99.90;;;;;;4974534;28;20026;-67
2023/01/04 06:31:44;;;;;;;10.00;3.42;;;7.60;99.90;;;;;;4975032;28;20062;-67
2023/01/04 06:34:11;;;;;;;8.32;3.78;;;7.60;99.90;;;;;;4974309;28;20077;-68
2023/01/04 06:36:37;;;;;;;9.20;3.80;;;7.60;99.90;;;;;;4973148;28;20023;-68
2023/01/04 06:39:03;;;;;;;16.42;4.03;;;7.70;99.90;;;;;;4974704;28;20034;-67
2023/01/04 06:41:28;;;;;;;9.85;3.67;;;7.70;99.90;;;;;;4974234;28;20027;-68
2023/01/04 06:43:54;;;;;;;10.48;2.95;;;7.70;99.90;;;;;;4974309;28;20066;-68
2023/01/04 06:46:19;;;;;;;5.80;2.28;;;7.70;99.90;;;;;;4973093;28;20026;-68
2023/01/04 06:48:45;;;;;;;9.40;2.58;;;7.80;99.90;;;;;;4974313;28;20360;-67
2023/01/04 06:51:13;;;;;;;8.98;3.05;;;7.80;99.90;;;;;;4974552;28;20050;-67
2023/01/04 06:53:39;;;;;;;6.97;2.42;;;7.80;99.90;;;;;;4973908;28;20084;-68
2023/01/04 06:56:06;;;;;;;9.32;3.03;;;7.80;99.90;;;;;;4974261;28;20027;-68
2023/01/04 06:58:32;;;;;;;14.02;3.38;;;7.80;99.90;;;;;;4974495;28;20102;-67
2023/01/04 07:00:57;;;;;;;10.48;3.03;;;7.80;99.90;;;;;;4974350;28;20072;-67
2023/01/04 07:03:23;;;;;;;6.75;2.35;;;7.80;99.90;;;;;;4974036;28;20541;-68
2023/01/04 07:05:48;;;;;;;7.28;2.15;;;7.80;99.90;;;;;;4974132;28;20035;-68
2023/01/04 07:08:14;;;;;;;12.52;2.72;;;7.80;99.90;;;;;;4974616;28;20031;-67
2023/01/04 07:10:41;;;;;;;9.00;2.03;;;7.80;99.90;;;;;;4974001;28;20039;-68
2023/01/04 07:13:07;;;;;;;11.32;2.67;;;7.80;99.90;;;;;;4974058;28;20507;-68
2023/01/04 07:15:33;;;;;;;6.93;2.47;;;7.90;99.90;;;;;;4973970;28;20073;-68
2023/01/04 07:17:59;;;;;;;7.82;2.42;;;8.00;99.90;;;;;;4974053;28;20510;-68
2023/01/04 07:20:25;;;;;;;7.65;2.20;;;8.00;99.90;;;;;;4976448;28;20039;-68
2023/01/04 07:22:51;;;;;;;2.50;1.60;;;8.10;99.90;;;;;;5040978;23;20097;-68
2023/01/04 07:25:16;;;;;;;4.43;2.17;;;8.10;99.90;;;;;;4978318;28;20026;-68
2023/01/04 07:27:42;;;;;;;6.70;2.35;;;8.20;99.90;;;;;;4978056;28;20033;-68
2023/01/04 07:30:08;;;;;;;9.57;2.72;;;8.20;99.90;;;;;;4977967;28;20105;-68
2023/01/04 07:32:34;;;;;;;4.97;2.10;;;8.30;99.90;;;;;;4978089;28;20052;-68
2023/01/04 07:34:59;;;;;;;7.05;1.83;;;8.30;99.90;;;;;;4978203;28;20147;-68
2023/01/04 07:37:25;;;;;;;6.65;2.05;;;8.40;99.90;;;;;;4978109;28;20085;-67
2023/01/04 07:39:50;;;;;;;8.20;2.35;;;8.50;99.90;;;;;;4978083;28;20034;-67
2023/01/04 07:42:17;;;;;;;6.72;1.60;;;8.50;99.90;;;;;;4977803;28;20034;-67
2023/01/04 07:44:43;;;;;;;6.47;1.65;;;8.60;99.90;;;;;;4977970;28;20023;-68
2023/01/04 07:47:09;;;;;;;6.47;1.40;;;8.60;99.90;;;;;;4976498;28;20403;-68
2023/01/04 07:49:34;;;;;;;6.53;1.67;;;8.70;99.90;;;;;;4977741;28;20027;-68
2023/01/04 07:52:00;;;;;;;7.38;1.50;;;8.80;99.90;;;;;;4977803;28;20038;-68
2023/01/04 07:54:25;;;;;;;5.65;1.40;;;8.80;99.90;;;;;;4978028;28;20033;-68
2023/01/04 07:56:51;;;;;;;3.08;1.67;;;8.80;99.90;;;;;;4977935;28;20471;-68
2023/01/04 07:59:19;;;;;;;3.47;1.40;;;8.90;99.90;;;;;;4977848;28;20057;-68
2023/01/04 08:01:45;;;;;;;7.28;1.50;;;9.00;99.90;;;;;;4977384;28;20110;-68
2023/01/04 08:04:12;;;;;;;3.20;1.48;;;8.90;99.90;;;;;;4977480;28;20106;-68
2023/01/04 08:06:39;;;;;;;9.25;1.48;;;9.00;99.90;;;;;;4977120;28;20473;-68
2023/01/04 08:09:05;;;;;;;7.40;1.65;;;9.00;99.90;;;;;;4976347;28;20577;-67
2023/01/04 08:11:31;;;;;;;18.15;1.45;;;9.00;99.90;;;;;;4977260;28;20031;-67
2023/01/04 08:13:57;;;;;;;6.53;1.80;;;9.10;99.90;;;;;;4977004;28;20081;-68
2023/01/04 08:16:31;;;;;;;9.70;1.38;;;9.10;99.90;;;;;;4976977;28;20025;-68
2023/01/04 08:19:05;;;;;;;9.57;1.45;;;9.10;99.90;;;;;;4976821;28;20081;-68
2023/01/04 08:21:33;;;;;;;11.48;1.27;;;9.10;99.90;;;;;;4977365;28;20446;-68
2023/01/04 08:24:00;;;;;;;6.95;1.30;;;9.10;99.90;;;;;;4977048;28;20045;-68
2023/01/04 08:26:26;;;;;;;13.43;1.70;;;9.20;99.90;;;;;;4976958;28;20027;-68
2023/01/04 08:28:52;;;;;;;17.02;1.90;;;9.20;99.90;;;;;;4977271;28;20398;-68
2023/01/04 08:31:20;;;;;;;9.32;1.48;;;9.10;99.90;;;;;;4976815;28;20386;-68
2023/01/04 08:33:47;;;;;;;10.20;1.60;;;9.10;99.90;;;;;;4976619;28;20058;-67
2023/01/04 08:36:18;;;;;;;14.18;2.00;;;9.10;99.90;;;;;;4976903;28;20034;-67
2023/01/04 08:38:44;;;;;;;18.65;2.35;;;9.10;99.90;;;;;;4976587;28;20031;-67
2023/01/04 08:41:10;;;;;;;22.05;3.60;;;9.10;99.90;;;;;;4976494;28;20390;-67
2023/01/04 08:43:35;;;;;;;29.23;4.45;;;9.00;99.90;;;;;;4976355;28;20061;-67
2023/01/04 08:46:04;;;;;;;17.48;2.92;;;9.00;99.90;;;;;;4976417;28;20450;-67
2023/01/04 08:48:31;;;;;;;26.95;3.05;;;8.90;99.90;;;;;;4976430;28;20055;-67
2023/01/04 08:50:58;;;;;;;28.25;4.15;;;8.90;99.90;;;;;;4976394;28;20031;-67
2023/01/04 08:53:24;;;;;;;29.52;5.43;;;8.90;99.90;;;;;;4976262;28;20034;-67
2023/01/04 08:55:50;;;;;;;46.78;5.43;;;8.90;99.90;;;;;;4976230;28;20041;-67
2023/01/04 08:58:16;;;;;;;35.88;5.38;;;8.90;99.90;;;;;;4976200;28;20078;-67
2023/01/04 09:00:42;;;;;;;32.05;6.20;;;8.90;99.90;;;;;;4976426;28;20478;-67
2023/01/04 09:03:07;;;;;;;40.08;5.82;;;8.90;99.90;;;;;;4976058;28;20483;-67
2023/01/04 09:05:33;;;;;;;58.53;6.90;;;8.90;99.90;;;;;;4975930;28;20026;-68
2023/01/04 09:07:59;;;;;;;45.80;5.32;;;8.90;99.90;;;;;;4976312;28;20486;-67
2023/01/04 09:10:25;;;;;;;42.47;6.18;;;8.90;99.90;;;;;;4975973;28;20031;-67
2023/01/04 09:12:50;;;;;;;39.28;4.55;;;8.90;99.90;;;;;;4976270;28;20509;-67
2023/01/04 09:15:17;;;;;;;28.95;5.80;;;8.90;99.90;;;;;;4975809;28;20035;-68
2023/01/04 09:17:43;;;;;;;41.55;7.13;;;9.00;99.90;;;;;;4975855;28;20022;-68
2023/01/04 09:20:08;;;;;;;64.90;7.88;;;9.00;99.90;;;;;;4975875;28;20382;-68
2023/01/04 09:22:34;;;;;;;39.53;8.15;;;8.90;99.90;;;;;;4975936;28;20074;-68
2023/01/04 09:25:00;;;;;;;51.88;6.68;;;8.90;99.90;;;;;;4976150;28;20030;-68
2023/01/04 09:27:25;;;;;;;44.25;7.68;;;9.00;99.90;;;;;;4976057;28;20031;-68
2023/01/04 09:29:51;;;;;;;50.65;8.07;;;9.00;99.90;;;;;;4975939;28;20023;-68
2023/01/04 09:32:17;;;;;;;49.88;9.27;;;9.00;99.90;;;;;;4983415;23;20031;-68
2023/01/04 09:34:43;;;;;;;56.97;9.63;;;9.00;99.90;;;;;;4993892;28;20056;-68
2023/01/04 09:37:08;;;;;;;59.17;8.75;;;9.10;99.90;;;;;;4995225;28;20076;-68
2023/01/04 09:39:34;;;;;;;81.63;10.80;;;9.10;99.90;;;;;;4995086;28;20034;-68
2023/01/04 09:42:02;;;;;;;81.28;10.50;;;9.10;99.90;;;;;;4994417;28;20105;-68
2023/01/04 09:44:47;;;;;;;79.63;9.98;;;9.10;99.90;;;;;;4976003;28;20023;-68
2023/01/04 09:47:52;;;;;;;65.68;10.13;;;9.10;99.90;;;;;;4975551;28;20022;-68
2023/01/04 09:50:35;;;;;;;74.32;10.50;;;9.10;99.90;;;;;;4971411;28;20088;-69
2023/01/04 09:53:22;;;;;;;68.63;10.68;;;9.10;99.90;;;;;;4974084;28;20026;-69
2023/01/04 09:55:51;;;;;;;77.20;12.27;;;9.10;99.90;;;;;;4975369;28;20027;-69
2023/01/04 09:58:36;;;;;;;97.43;13.00;;;9.20;99.90;;;;;;4975561;28;20360;-70
2023/01/04 10:01:06;;;;;;;85.72;12.80;;;9.20;99.90;;;;;;4975386;28;20106;-69
2023/01/04 10:03:40;;;;;;;98.05;14.18;;;9.20;99.90;;;;;;4975233;28;20033;-69
2023/01/04 10:06:08;;;;;;;;;;;9.10;99.90;;;;;;4976007;28;20066;-69
2023/01/04 10:08:34;;;;;;;96.28;13.10;;;9.20;99.90;;;;;;4975624;28;19910;-69
2023/01/04 10:11:14;;;;;;;105.40;14.27;;;9.10;99.90;;;;;;4974889;28;20033;-70
2023/01/04 10:13:50;;;;;;;105.10;13.68;;;9.10;99.90;;;;;;4975018;28;20022;-69
2023/01/04 10:16:48;;;;;;;127.60;14.02;;;9.10;99.90;;;;;;4973844;28;20050;-69
2023/01/04 10:19:57;;;;;;;108.72;14.95;;;9.10;99.90;;;;;;4975163;28;20037;-70
2023/01/04 10:22:45;;;;;;;94.68;13.73;;;9.10;99.90;;;;;;4964963;28;20561;-70
2023/01/04 10:25:28;;;;;;;122.55;15.00;;;9.10;99.90;;;;;;4975076;28;20030;-69
2023/01/04 10:27:56;;;;;;;93.88;13.52;;;9.10;99.90;;;;;;4975463;28;20042;-69
2023/01/04 10:30:37;;;;;;;99.90;14.30;;;9.10;99.90;;;;;;4974799;28;20023;-70
2023/01/04 10:33:11;;;;;;;112.40;16.08;;;9.10;99.90;;;;;;4974784;28;20026;-70
2023/01/04 10:35:37;;;;;;;114.40;14.35;;;9.10;99.90;;;;;;4973155;28;20117;-70
2023/01/04 10:38:10;;;;;;;118.07;16.27;;;9.10;99.90;;;;;;4974752;28;20030;-70
2023/01/04 10:40:38;;;;;;;140.32;29.55;;;9.10;99.90;;;;;;4974330;28;20391;-70
2023/01/04 10:43:28;;;;;;;110.03;16.30;;;9.10;99.90;;;;;;4974760;28;20066;-69
2023/01/04 10:46:06;;;;;;;95.82;12.73;;;9.00;99.90;;;;;;4975163;28;20041;-70
2023/01/04 10:48:45;;;;;;;97.60;16.67;;;9.00;99.90;;;;;;4975005;28;20025;-69
2023/01/04 10:51:13;;;;;;;127.38;15.27;;;9.10;99.90;;;;;;4975233;28;20041;-69
2023/01/04 10:53:58;;;;;;;146.20;16.08;;;9.10;99.90;;;;;;4976593;28;20058;-70
2023/01/04 10:56:35;;;;;;;131.65;17.75;;;9.10;99.90;;;;;;4979670;28;20026;-70
2023/01/04 10:59:21;;;;;;;145.00;17.20;;;9.10;99.90;;;;;;4979138;28;20026;-69
2023/01/04 11:01:50;;;;;;;149.55;16.63;;;9.20;99.90;;;;;;4978681;28;20474;-70
2023/01/04 11:04:33;;;;;;;121.43;17.17;;;9.10;99.90;;;;;;4978605;28;20049;-70
2023/01/04 11:07:06;;;;;;;114.82;16.67;;;9.20;99.90;;;;;;4977298;28;20026;-69
2023/01/04 11:09:38;;;;;;;99.33;14.70;;;9.20;99.90;;;;;;4979044;28;20472;-69
2023/01/04 11:12:07;;;;;;;95.00;13.43;;;9.20;99.90;;;;;;4978617;28;20041;-69
2023/01/04 11:14:32;;;;;;;132.35;14.85;;;9.30;99.90;;;;;;4978011;28;20023;-69
2023/01/04 11:17:01;;;;;;;114.72;13.88;;;9.30;99.90;;;;;;4978097;28;20105;-69
2023/01/04 11:19:28;;;;;;;90.22;13.93;;;9.30;99.90;;;;;;4978424;28;20027;-69
2023/01/04 11:21:59;;;;;;;88.65;12.68;;;9.30;99.90;;;;;;4978736;28;20026;-69
2023/01/04 11:24:29;;;;;;;94.70;12.20;;;9.20;99.90;;;;;;4976891;28;20113;-69
2023/01/04 11:26:57;;;;;;;83.10;11.90;;;9.20;99.90;;;;;;4978548;28;20026;-70
2023/01/04 11:29:43;;;;;;;81.07;11.65;;;9.30;99.90;;;;;;4977777;28;20161;-68
2023/01/04 11:32:37;;;;;;;99.45;11.13;;;9.30;99.90;;;;;;4976857;28;20138;-69
2023/01/04 11:35:03;;;;;;;93.85;12.73;;;9.20;99.90;;;;;;4977978;28;20066;-68
2023/01/04 11:37:34;;;;;;;85.00;13.75;;;9.30;99.90;;;;;;4978385;28;20066;-70
2023/01/04 11:40:17;;;;;;;89.00;12.32;;;9.20;99.90;;;;;;4977872;28;20023;-69
2023/01/04 11:42:44;;;;;;;91.07;11.77;;;9.20;99.90;;;;;;4978002;28;20372;-70
2023/01/04 11:45:23;;;;;;;127.65;13.50;;;9.30;99.90;;;;;;4977863;28;20043;-69
2023/01/04 11:47:56;;;;;;;98.13;12.93;;;9.30;99.90;;;;;;4977959;28;20022;-69
2023/01/04 11:50:34;;;;;;;;;;;9.30;99.90;;;;;;4978086;28;20443;-69
2023/01/04 11:53:00;;;;;;;111.78;14.18;;;9.30;99.90;;;;;;4977546;28;19906;-69
2023/01/04 11:55:29;;;;;;;119.93;13.70;;;9.30;99.90;;;;;;4977592;28;20038;-69
2023/01/04 11:58:10;;;;;;;146.10;17.23;;;9.30;99.90;;;;;;4977787;28;20110;-69
2023/01/04 12:00:36;;;;;;;127.45;17.08;;;9.30;99.90;;;;;;4977451;28;20023;-69
2023/01/04 12:03:13;;;;;;;125.00;15.05;;;9.30;99.90;;;;;;4977237;28;20027;-69
2023/01/04 12:05:39;;;;;;;137.60;15.77;;;9.30;99.90;;;;;;4976933;28;20491;-69
2023/01/04 12:08:05;;;;;;;122.30;15.35;;;9.40;99.90;;;;;;4977166;28;20062;-69
2023/01/04 12:10:31;;;;;;;142.82;18.20;;;9.40;99.90;;;;;;4977181;28;20498;-69
2023/01/04 12:12:59;;;;;;;124.57;16.67;;;9.40;99.90;;;;;;4977077;28;20058;-69
2023/01/04 12:15:41;;;;;;;124.30;15.05;;;9.40;99.90;;;;;;4976958;28;20113;-69
2023/01/04 12:18:17;;;;;;;127.00;17.00;;;9.50;99.90;;;;;;4977101;28;20027;-69
2023/01/04 12:20:43;;;;;;;155.57;16.70;;;9.40;99.90;;;;;;4977244;28;20051;-69
2023/01/04 12:23:12;;;;;;;169.52;19.50;;;9.40;99.90;;;;;;4976992;28;20058;-69
2023/01/04 12:25:45;;;;;;;144.38;16.98;;;9.40;99.90;;;;;;4977261;28;20041;-69
2023/01/04 12:28:40;;;;;;;151.43;18.58;;;9.40;99.90;;;;;;4976946;28;20026;-69
2023/01/04 12:31:18;;;;;;;119.53;16.77;;;9.50;99.90;;;;;;4973957;28;20057;-69
2023/01/04 12:33:45;;;;;;;131.95;15.45;;;9.50;99.90;;;;;;4976625;28;20102;-68
2023/01/04 12:36:17;;;;;;;152.55;18.10;;;9.50;99.90;;;;;;4976688;28;20037;-69
2023/01/04 12:38:54;;;;;;;137.02;17.02;;;9.60;99.90;;;;;;4976752;28;20025;-69
2023/01/04 12:41:22;;;;;;;160.13;18.13;;;9.60;99.90;;;;;;4976947;28;20022;-69
2023/01/04 12:43:48;;;;;;;143.70;17.73;;;9.60;99.90;;;;;;4976504;28;20035;-69
2023/01/04 12:49:28;;;;;;;148.98;17.77;;;9.60;99.90;;;;;;4976492;28;20034;-70
2023/01/04 12:52:09;;;;;;;127.63;16.60;;;9.60;99.90;;;;;;4976997;28;20026;-69
2023/01/04 12:54:48;;;;;;;144.80;17.08;;;9.60;99.90;;;;;;4989194;28;20512;-70
2023/01/04 12:57:17;;;;;;;113.78;14.65;;;9.60;99.90;;;;;;4996134;28;20030;-69
2023/01/04 13:00:03;;;;;;;106.65;14.95;;;9.60;99.90;;;;;;4995255;28;20018;-69
2023/01/04 13:02:34;;;;;;;137.95;15.15;;;9.60;99.90;;;;;;4976171;28;20101;-69
2023/01/04 13:05:15;;;;;;;134.43;14.45;;;9.60;99.90;;;;;;4976202;28;20027;-69
2023/01/04 13:07:56;;;;;;;131.10;15.52;;;9.60;99.90;;;;;;4976230;28;20027;-69
2023/01/04 13:10:37;;;;;;;110.03;13.57;;;9.60;99.90;;;;;;4976730;28;20101;-69
2023/01/04 13:13:48;;;;;;;108.38;15.77;;;9.70;99.90;;;;;;4975972;28;20498;-69
2023/01/04 13:16:29;;;;;;;124.60;18.45;;;9.70;99.90;;;;;;4976031;28;20058;-69
2023/01/04 13:18:57;;;;;;;99.75;13.40;;;9.70;99.90;;;;;;4975813;28;20069;-69
2023/01/04 13:21:45;;;;;;;113.28;13.73;;;9.70;99.90;;;;;;4976120;28;20106;-69
2023/01/04 13:24:32;;;;;;;118.75;18.95;;;9.70;99.90;;;;;;4976098;28;20031;-69
2023/01/04 13:27:25;;;;;;;130.30;18.85;;;9.70;99.90;;;;;;4956933;28;20386;-68
2023/01/04 13:29:51;;;;;;;98.85;13.95;;;9.70;99.90;;;;;;4955394;28;20097;-70
2023/01/04 13:32:20;;;;;;;115.97;17.17;;;9.70;99.90;;;;;;4956814;28;20020;-69
2023/01/04 13:35:02;;;;;;;123.85;17.83;;;9.70;99.90;;;;;;4956533;28;20115;-69
2023/01/04 13:37:31;;;;;;;121.93;13.90;;;9.70;99.90;;;;;;4956701;28;20042;-69
2023/01/04 13:40:15;;;;;;;111.45;16.25;;;9.70;99.90;;;;;;4956256;28;20491;-67
2023/01/04 13:42:45;;;;;;;125.50;15.23;;;9.70;99.90;;;;;;4973471;28;20062;-70
2023/01/04 13:45:36;;;;;;;128.57;14.98;;;9.70;99.90;;;;;;4975808;28;20030;-69